sensor_id;sensor_type;location;lat;lon;timestamp;pressure;altitude;pressure_sealevel;temperature;humidity
48718;BME280;34521;33.042;-96.586;2023-04-01T00:00:20;99283.29;;;24.33;31.44
48718;BME280;34521;33.042;-96.586;2023-04-01T00:02:44;99285.94;;;24.34;31.83
48718;BME280;34521;33.042;-96.586;2023-04-01T00:05:10;99292.41;;;24.42;31.83
48718;BME280;34521;33.042;-96.586;2023-04-01T00:07:34;99295.34;;;24.42;31.89
48718;BME280;34521;33.042;-96.586;2023-04-01T00:09:59;99297.07;;;24.28;31.79
48718;BME280;34521;33.042;-96.586;2023-04-01T00:12:24;99297.39;;;24.09;32.03
48718;BME280;34521;33.042;-96.586;2023-04-01T00:14:49;99299.39;;;24.00;32.14
48718;BME280;34521;33.042;-96.586;2023-04-01T00:17:14;99301.13;;;24.31;32.02
48718;BME280;34521;33.042;-96.586;2023-04-01T00:19:39;99312.38;;;21.92;34.56
48718;BME280;34521;33.042;-96.586;2023-04-01T00:22:04;99321.11;;;21.64;35.12
48718;BME280;34521;33.042;-96.586;2023-04-01T00:24:29;99325.97;;;21.72;36.43
48718;BME280;34521;33.042;-96.586;2023-04-01T00:26:55;99324.83;;;23.14;34.13
48718;BME280;34521;33.042;-96.586;2023-04-01T00:29:19;99327.08;;;23.58;33.31
48718;BME280;34521;33.042;-96.586;2023-04-01T00:31:49;99331.18;;;23.78;32.71
48718;BME280;34521;33.042;-96.586;2023-04-01T00:34:09;99338.06;;;23.75;32.76
48718;BME280;34521;33.042;-96.586;2023-04-01T00:36:34;99337.02;;;23.91;32.68
48718;BME280;34521;33.042;-96.586;2023-04-01T00:39:00;99348.16;;;22.91;33.61
48718;BME280;34521;33.042;-96.586;2023-04-01T00:41:24;99349.13;;;21.70;35.51
48718;BME280;34521;33.042;-96.586;2023-04-01T00:43:51;99351.61;;;22.12;34.41
48718;BME280;34521;33.042;-96.586;2023-04-01T00:46:15;99359.87;;;21.90;33.55
48718;BME280;34521;33.042;-96.586;2023-04-01T00:48:44;99363.86;;;21.30;33.72
48718;BME280;34521;33.042;-96.586;2023-04-01T00:51:07;99364.88;;;21.01;33.41
48718;BME280;34521;33.042;-96.586;2023-04-01T00:53:31;99366.05;;;20.97;33.42
48718;BME280;34521;33.042;-96.586;2023-04-01T00:55:59;99374.82;;;22.31;32.47
48718;BME280;34521;33.042;-96.586;2023-04-01T00:58:21;99382.12;;;22.64;31.47
48718;BME280;34521;33.042;-96.586;2023-04-01T01:00:46;99387.96;;;22.71;31.22
48718;BME280;34521;33.042;-96.586;2023-04-01T01:03:10;99388.94;;;23.15;30.73
48718;BME280;34521;33.042;-96.586;2023-04-01T01:08:06;99394.96;;;20.63;34.30
48718;BME280;34521;33.042;-96.586;2023-04-01T01:10:29;99399.75;;;21.49;32.98
48718;BME280;34521;33.042;-96.586;2023-04-01T01:15:21;99401.39;;;22.04;32.98
48718;BME280;34521;33.042;-96.586;2023-04-01T01:17:47;99405.77;;;22.46;31.58
48718;BME280;34521;33.042;-96.586;2023-04-01T01:22:40;99417.34;;;23.11;30.70
48718;BME280;34521;33.042;-96.586;2023-04-01T01:27:20;99426.32;;;20.73;33.99
48718;BME280;34521;33.042;-96.586;2023-04-01T01:30:05;99428.32;;;21.22;33.10
48718;BME280;34521;33.042;-96.586;2023-04-01T01:32:19;99431.34;;;21.15;33.15
48718;BME280;34521;33.042;-96.586;2023-04-01T01:34:39;99433.30;;;22.29;31.87
48718;BME280;34521;33.042;-96.586;2023-04-01T01:37:03;99445.91;;;22.59;31.36
48718;BME280;34521;33.042;-96.586;2023-04-01T01:39:28;99449.06;;;23.13;30.77
48718;BME280;34521;33.042;-96.586;2023-04-01T01:41:50;99448.38;;;22.94;30.83
48718;BME280;34521;33.042;-96.586;2023-04-01T01:44:16;99450.61;;;23.10;30.70
48718;BME280;34521;33.042;-96.586;2023-04-01T01:46:42;99454.71;;;20.55;34.34
48718;BME280;34521;33.042;-96.586;2023-04-01T01:49:08;99453.76;;;20.92;33.01
48718;BME280;34521;33.042;-96.586;2023-04-01T01:51:31;99452.80;;;21.27;33.33
48718;BME280;34521;33.042;-96.586;2023-04-01T01:53:56;99452.10;;;22.39;31.46
48718;BME280;34521;33.042;-96.586;2023-04-01T01:56:23;99459.16;;;22.35;31.42
48718;BME280;34521;33.042;-96.586;2023-04-01T01:58:48;99468.46;;;22.99;30.73
48718;BME280;34521;33.042;-96.586;2023-04-01T02:01:13;99472.19;;;22.83;30.69
48718;BME280;34521;33.042;-96.586;2023-04-01T02:03:37;99474.95;;;23.04;30.59
48718;BME280;34521;33.042;-96.586;2023-04-01T02:06:03;99472.89;;;21.88;32.06
48718;BME280;34521;33.042;-96.586;2023-04-01T02:08:30;99476.61;;;20.06;34.68
48718;BME280;34521;33.042;-96.586;2023-04-01T02:10:58;99476.93;;;21.23;32.56
48718;BME280;34521;33.042;-96.586;2023-04-01T02:13:21;99486.45;;;22.96;30.95
48718;BME280;34521;33.042;-96.586;2023-04-01T02:15:44;99489.79;;;22.82;31.31
48718;BME280;34521;33.042;-96.586;2023-04-01T02:18:06;99489.92;;;22.66;31.71
48718;BME280;34521;33.042;-96.586;2023-04-01T02:20:32;99492.18;;;22.62;31.97
48718;BME280;34521;33.042;-96.586;2023-04-01T02:22:57;99494.77;;;22.33;32.53
48718;BME280;34521;33.042;-96.586;2023-04-01T02:25:26;99501.03;;;22.45;32.57
48718;BME280;34521;33.042;-96.586;2023-04-01T02:27:47;99508.50;;;22.20;32.94
48718;BME280;34521;33.042;-96.586;2023-04-01T02:30:14;99505.28;;;22.04;32.96
48718;BME280;34521;33.042;-96.586;2023-04-01T02:32:38;99512.04;;;22.37;31.92
48718;BME280;34521;33.042;-96.586;2023-04-01T02:35:02;99521.55;;;22.53;30.79
48718;BME280;34521;33.042;-96.586;2023-04-01T02:37:27;99530.21;;;23.68;30.30
48718;BME280;34521;33.042;-96.586;2023-04-01T02:39:52;99532.04;;;22.28;31.77
48718;BME280;34521;33.042;-96.586;2023-04-01T02:42:17;99539.10;;;22.12;32.50
48718;BME280;34521;33.042;-96.586;2023-04-01T02:44:42;99544.82;;;22.02;32.85
48718;BME280;34521;33.042;-96.586;2023-04-01T02:47:08;99546.14;;;21.86;33.47
48718;BME280;34521;33.042;-96.586;2023-04-01T02:49:32;99553.31;;;21.93;33.19
48718;BME280;34521;33.042;-96.586;2023-04-01T02:51:57;99558.10;;;22.21;32.93
48718;BME280;34521;33.042;-96.586;2023-04-01T02:54:22;99562.74;;;21.86;33.51
48718;BME280;34521;33.042;-96.586;2023-04-01T02:56:48;99569.11;;;22.24;33.41
48718;BME280;34521;33.042;-96.586;2023-04-01T02:59:12;99568.72;;;22.04;32.05
48718;BME280;34521;33.042;-96.586;2023-04-01T03:01:38;99575.37;;;23.10;30.06
48718;BME280;34521;33.042;-96.586;2023-04-01T03:04:03;99575.68;;;22.74;31.08
48718;BME280;34521;33.042;-96.586;2023-04-01T03:06:28;99580.82;;;22.34;32.01
48718;BME280;34521;33.042;-96.586;2023-04-01T03:08:53;99579.46;;;22.57;32.00
48718;BME280;34521;33.042;-96.586;2023-04-01T03:11:17;99583.78;;;22.16;32.55
48718;BME280;34521;33.042;-96.586;2023-04-01T03:13:43;99582.67;;;22.18;32.93
48718;BME280;34521;33.042;-96.586;2023-04-01T03:16:08;99584.33;;;22.07;32.97
48718;BME280;34521;33.042;-96.586;2023-04-01T03:18:33;99588.73;;;21.70;33.47
48718;BME280;34521;33.042;-96.586;2023-04-01T03:20:57;99588.97;;;22.01;33.16
48718;BME280;34521;33.042;-96.586;2023-04-01T03:23:23;99593.69;;;22.42;33.26
48718;BME280;34521;33.042;-96.586;2023-04-01T03:25:48;99600.95;;;22.07;33.73
48718;BME280;34521;33.042;-96.586;2023-04-01T03:28:13;99600.08;;;22.20;33.61
48718;BME280;34521;33.042;-96.586;2023-04-01T03:30:38;99605.81;;;22.39;33.70
48718;BME280;34521;33.042;-96.586;2023-04-01T03:33:03;99603.98;;;22.15;33.64
48718;BME280;34521;33.042;-96.586;2023-04-01T03:35:28;99606.07;;;22.10;33.70
48718;BME280;34521;33.042;-96.586;2023-04-01T03:37:54;99608.62;;;20.42;34.77
48718;BME280;34521;33.042;-96.586;2023-04-01T03:40:19;99609.01;;;20.18;34.94
48718;BME280;34521;33.042;-96.586;2023-04-01T03:42:43;99611.15;;;20.76;34.21
48718;BME280;34521;33.042;-96.586;2023-04-01T03:45:09;99610.97;;;22.88;31.22
48718;BME280;34521;33.042;-96.586;2023-04-01T03:47:33;99613.98;;;23.13;30.43
48718;BME280;34521;33.042;-96.586;2023-04-01T03:49:58;99612.69;;;23.13;30.49
48718;BME280;34521;33.042;-96.586;2023-04-01T03:52:23;99613.53;;;23.31;30.03
48718;BME280;34521;33.042;-96.586;2023-04-01T03:54:48;99619.83;;;23.80;29.22
48718;BME280;34521;33.042;-96.586;2023-04-01T03:57:13;99624.96;;;23.88;29.40
48718;BME280;34521;33.042;-96.586;2023-04-01T03:59:38;99622.34;;;23.53;29.56
48718;BME280;34521;33.042;-96.586;2023-04-01T04:02:04;99622.10;;;23.62;29.53
48718;BME280;34521;33.042;-96.586;2023-04-01T04:04:29;99628.04;;;23.63;29.55
48718;BME280;34521;33.042;-96.586;2023-04-01T04:06:53;99627.91;;;23.83;29.91
48718;BME280;34521;33.042;-96.586;2023-04-01T04:09:18;99629.65;;;23.19;30.16
48718;BME280;34521;33.042;-96.586;2023-04-01T04:11:44;99633.80;;;23.10;30.25
48718;BME280;34521;33.042;-96.586;2023-04-01T04:14:09;99640.14;;;20.58;33.19
48718;BME280;34521;33.042;-96.586;2023-04-01T04:16:35;99642.13;;;20.48;32.78
48718;BME280;34521;33.042;-96.586;2023-04-01T04:18:59;99647.31;;;21.57;32.47
48718;BME280;34521;33.042;-96.586;2023-04-01T04:21:24;99651.65;;;20.53;34.89
48718;BME280;34521;33.042;-96.586;2023-04-01T04:23:49;99654.72;;;22.40;32.01
48718;BME280;34521;33.042;-96.586;2023-04-01T04:26:15;99652.21;;;22.91;30.95
48718;BME280;34521;33.042;-96.586;2023-04-01T04:28:39;99652.15;;;23.00;31.01
48718;BME280;34521;33.042;-96.586;2023-04-01T04:31:04;99653.63;;;23.23;30.45
48718;BME280;34521;33.042;-96.586;2023-04-01T04:33:29;99653.48;;;22.89;30.58
48718;BME280;34521;33.042;-96.586;2023-04-01T04:35:56;99655.88;;;23.01;30.41
48718;BME280;34521;33.042;-96.586;2023-04-01T04:38:19;99658.31;;;23.10;30.59
48718;BME280;34521;33.042;-96.586;2023-04-01T04:40:44;99658.15;;;23.54;30.10
48718;BME280;34521;33.042;-96.586;2023-04-01T04:43:12;99659.87;;;22.76;30.46
48718;BME280;34521;33.042;-96.586;2023-04-01T04:45:34;99662.43;;;22.59;30.64
48718;BME280;34521;33.042;-96.586;2023-04-01T04:47:59;99662.54;;;22.85;30.62
48718;BME280;34521;33.042;-96.586;2023-04-01T04:50:25;99659.98;;;22.66;30.59
48718;BME280;34521;33.042;-96.586;2023-04-01T04:52:50;99663.35;;;23.01;30.47
48718;BME280;34521;33.042;-96.586;2023-04-01T04:55:15;99661.85;;;22.38;30.87
48718;BME280;34521;33.042;-96.586;2023-04-01T04:57:39;99665.38;;;22.92;30.59
48718;BME280;34521;33.042;-96.586;2023-04-01T05:00:06;99662.35;;;23.22;30.54
48718;BME280;34521;33.042;-96.586;2023-04-01T05:02:30;99658.06;;;22.31;31.00
48718;BME280;34521;33.042;-96.586;2023-04-01T05:04:55;99668.43;;;20.17;33.52
48718;BME280;34521;33.042;-96.586;2023-04-01T05:07:20;99667.89;;;19.64;34.06
48718;BME280;34521;33.042;-96.586;2023-04-01T05:09:45;99660.47;;;20.63;33.44
48718;BME280;34521;33.042;-96.586;2023-04-01T05:12:10;99662.67;;;20.09;35.10
48718;BME280;34521;33.042;-96.586;2023-04-01T05:14:35;99662.88;;;19.86;36.75
48718;BME280;34521;33.042;-96.586;2023-04-01T05:17:00;99661.18;;;19.98;37.25
48718;BME280;34521;33.042;-96.586;2023-04-01T05:19:25;99662.78;;;19.71;38.08
48718;BME280;34521;33.042;-96.586;2023-04-01T05:21:50;99655.80;;;21.80;34.54
48718;BME280;34521;33.042;-96.586;2023-04-01T05:24:15;99656.93;;;21.99;34.13
48718;BME280;34521;33.042;-96.586;2023-04-01T05:26:40;99655.71;;;22.34;33.51
48718;BME280;34521;33.042;-96.586;2023-04-01T05:29:06;99658.45;;;22.52;32.58
48718;BME280;34521;33.042;-96.586;2023-04-01T05:31:30;99659.98;;;22.98;32.15
48718;BME280;34521;33.042;-96.586;2023-04-01T05:33:56;99659.93;;;22.66;32.44
48718;BME280;34521;33.042;-96.586;2023-04-01T05:36:20;99659.49;;;22.76;31.99
48718;BME280;34521;33.042;-96.586;2023-04-01T05:38:45;99662.79;;;22.56;32.10
48718;BME280;34521;33.042;-96.586;2023-04-01T05:41:10;99663.43;;;22.46;31.87
48718;BME280;34521;33.042;-96.586;2023-04-01T05:43:37;99664.92;;;22.80;31.70
48718;BME280;34521;33.042;-96.586;2023-04-01T05:46:00;99667.31;;;22.70;31.74
48718;BME280;34521;33.042;-96.586;2023-04-01T05:48:25;99665.26;;;23.06;31.27
48718;BME280;34521;33.042;-96.586;2023-04-01T05:50:51;99662.67;;;22.85;31.47
48718;BME280;34521;33.042;-96.586;2023-04-01T05:53:15;99664.26;;;22.80;31.23
48718;BME280;34521;33.042;-96.586;2023-04-01T05:55:40;99663.23;;;22.98;31.23
48718;BME280;34521;33.042;-96.586;2023-04-01T05:58:06;99662.97;;;22.53;31.44
48718;BME280;34521;33.042;-96.586;2023-04-01T06:00:31;99658.77;;;23.04;31.08
48718;BME280;34521;33.042;-96.586;2023-04-01T06:02:58;99657.73;;;22.52;31.33
48718;BME280;34521;33.042;-96.586;2023-04-01T06:05:23;99658.66;;;22.93;31.16
48718;BME280;34521;33.042;-96.586;2023-04-01T06:07:46;99657.32;;;22.65;31.44
48718;BME280;34521;33.042;-96.586;2023-04-01T06:10:15;99666.71;;;19.89;35.88
48718;BME280;34521;33.042;-96.586;2023-04-01T06:12:51;99671.14;;;18.52;38.91
48718;BME280;34521;33.042;-96.586;2023-04-01T06:15:11;99672.42;;;18.40;40.22
48718;BME280;34521;33.042;-96.586;2023-04-01T06:17:34;99676.16;;;18.32;40.79
48718;BME280;34521;33.042;-96.586;2023-04-01T06:19:56;99677.56;;;19.63;38.12
48718;BME280;34521;33.042;-96.586;2023-04-01T06:22:29;99676.55;;;21.75;35.03
48718;BME280;34521;33.042;-96.586;2023-04-01T06:24:51;99681.41;;;22.22;33.30
48718;BME280;34521;33.042;-96.586;2023-04-01T06:27:14;99686.16;;;22.43;32.91
48718;BME280;34521;33.042;-96.586;2023-04-01T06:29:46;99694.61;;;22.29;32.58
48718;BME280;34521;33.042;-96.586;2023-04-01T06:32:14;99701.63;;;22.43;32.34
48718;BME280;34521;33.042;-96.586;2023-04-01T06:34:37;99701.20;;;22.47;32.19
48718;BME280;34521;33.042;-96.586;2023-04-01T06:36:59;99696.44;;;22.41;31.91
48718;BME280;34521;33.042;-96.586;2023-04-01T06:39:22;99694.79;;;22.56;31.99
48718;BME280;34521;33.042;-96.586;2023-04-01T06:41:57;99689.73;;;22.30;31.95
48718;BME280;34521;33.042;-96.586;2023-04-01T06:44:13;99687.39;;;22.42;31.77
48718;BME280;34521;33.042;-96.586;2023-04-01T06:46:35;99683.41;;;22.70;31.65
48718;BME280;34521;33.042;-96.586;2023-04-01T06:49:04;99687.38;;;22.72;31.53
48718;BME280;34521;33.042;-96.586;2023-04-01T06:51:26;99686.93;;;22.88;31.32
48718;BME280;34521;33.042;-96.586;2023-04-01T06:53:49;99681.87;;;22.50;31.45
48718;BME280;34521;33.042;-96.586;2023-04-01T06:56:09;99680.45;;;22.56;31.60
48718;BME280;34521;33.042;-96.586;2023-04-01T06:58:37;99685.73;;;22.44;31.70
48718;BME280;34521;33.042;-96.586;2023-04-01T07:00:59;99683.61;;;22.42;31.67
48718;BME280;34521;33.042;-96.586;2023-04-01T07:03:29;99677.89;;;22.81;31.21
48718;BME280;34521;33.042;-96.586;2023-04-01T07:05:47;99681.67;;;22.50;30.97
48718;BME280;34521;33.042;-96.586;2023-04-01T07:08:16;99693.40;;;19.52;36.30
48718;BME280;34521;33.042;-96.586;2023-04-01T07:10:45;99695.20;;;18.27;38.58
48718;BME280;34521;33.042;-96.586;2023-04-01T07:13:06;99695.81;;;18.07;39.23
48718;BME280;34521;33.042;-96.586;2023-04-01T07:15:32;99695.46;;;18.26;39.26
48718;BME280;34521;33.042;-96.586;2023-04-01T07:17:55;99697.44;;;18.15;39.29
48718;BME280;34521;33.042;-96.586;2023-04-01T07:20:22;99692.40;;;21.01;34.59
48718;BME280;34521;33.042;-96.586;2023-04-01T07:22:45;99693.95;;;21.69;33.04
48718;BME280;34521;33.042;-96.586;2023-04-01T07:25:13;99692.93;;;22.19;32.36
48718;BME280;34521;33.042;-96.586;2023-04-01T07:27:33;99689.24;;;22.11;32.10
48718;BME280;34521;33.042;-96.586;2023-04-01T07:29:57;99686.81;;;22.30;31.53
48718;BME280;34521;33.042;-96.586;2023-04-01T07:32:29;99685.83;;;22.43;31.61
48718;BME280;34521;33.042;-96.586;2023-04-01T07:34:57;99680.30;;;22.84;31.12
48718;BME280;34521;33.042;-96.586;2023-04-01T07:37:16;99684.30;;;22.15;31.54
48718;BME280;34521;33.042;-96.586;2023-04-01T07:39:44;99683.53;;;22.11;31.54
48718;BME280;34521;33.042;-96.586;2023-04-01T07:42:09;99683.31;;;22.13;31.48
48718;BME280;34521;33.042;-96.586;2023-04-01T07:44:34;99684.50;;;22.19;31.40
48718;BME280;34521;33.042;-96.586;2023-04-01T07:47:04;99682.37;;;22.32;31.26
48718;BME280;34521;33.042;-96.586;2023-04-01T07:49:22;99681.85;;;22.09;31.38
48718;BME280;34521;33.042;-96.586;2023-04-01T07:51:49;99679.07;;;22.13;31.34
48718;BME280;34521;33.042;-96.586;2023-04-01T07:54:13;99675.87;;;22.23;31.23
48718;BME280;34521;33.042;-96.586;2023-04-01T07:56:38;99673.88;;;21.76;31.47
48718;BME280;34521;33.042;-96.586;2023-04-01T07:59:05;99678.40;;;21.98;31.42
48718;BME280;34521;33.042;-96.586;2023-04-01T08:01:28;99681.50;;;22.25;31.15
48718;BME280;34521;33.042;-96.586;2023-04-01T08:04:01;99690.87;;;20.57;33.35
48718;BME280;34521;33.042;-96.586;2023-04-01T08:06:18;99692.64;;;18.29;36.92
48718;BME280;34521;33.042;-96.586;2023-04-01T08:08:52;99697.91;;;18.14;37.54
48718;BME280;34521;33.042;-96.586;2023-04-01T08:11:11;99700.52;;;18.19;37.67
48718;BME280;34521;33.042;-96.586;2023-04-01T08:13:35;99697.68;;;18.20;37.92
48718;BME280;34521;33.042;-96.586;2023-04-01T08:15:56;99696.49;;;18.26;37.73
48718;BME280;34521;33.042;-96.586;2023-04-01T08:18:26;99698.60;;;20.20;34.72
48718;BME280;34521;33.042;-96.586;2023-04-01T08:20:47;99693.09;;;21.25;32.54
48718;BME280;34521;33.042;-96.586;2023-04-01T08:23:14;99696.12;;;21.63;32.01
48718;BME280;34521;33.042;-96.586;2023-04-01T08:25:34;99691.83;;;21.65;31.61
48718;BME280;34521;33.042;-96.586;2023-04-01T08:28:02;99691.39;;;21.88;31.34
48718;BME280;34521;33.042;-96.586;2023-04-01T08:30:26;99684.33;;;21.90;31.01
48718;BME280;34521;33.042;-96.586;2023-04-01T08:32:51;99679.18;;;21.61;31.32
48718;BME280;34521;33.042;-96.586;2023-04-01T08:35:22;99675.55;;;21.68;31.57
48718;BME280;34521;33.042;-96.586;2023-04-01T08:37:40;99664.45;;;21.89;31.01
48718;BME280;34521;33.042;-96.586;2023-04-01T08:40:16;99664.77;;;21.78;31.07
48718;BME280;34521;33.042;-96.586;2023-04-01T08:42:46;99663.91;;;21.69;30.92
48718;BME280;34521;33.042;-96.586;2023-04-01T08:45:07;99662.62;;;21.63;31.19
48718;BME280;34521;33.042;-96.586;2023-04-01T08:47:32;99664.72;;;21.76;31.08
48718;BME280;34521;33.042;-96.586;2023-04-01T08:50:07;99670.03;;;21.76;31.07
48718;BME280;34521;33.042;-96.586;2023-04-01T08:52:19;99670.88;;;21.97;30.80
48718;BME280;34521;33.042;-96.586;2023-04-01T08:54:47;99671.37;;;21.83;30.97
48718;BME280;34521;33.042;-96.586;2023-04-01T08:57:03;99665.91;;;21.97;30.78
48718;BME280;34521;33.042;-96.586;2023-04-01T08:59:35;99667.75;;;21.88;30.83
48718;BME280;34521;33.042;-96.586;2023-04-01T09:04:30;99680.55;;;22.26;30.42
48718;BME280;34521;33.042;-96.586;2023-04-01T09:06:49;99692.91;;;19.42;33.71
48718;BME280;34521;33.042;-96.586;2023-04-01T09:11:41;99690.96;;;18.59;36.66
48718;BME280;34521;33.042;-96.586;2023-04-01T09:14:07;99695.32;;;18.25;37.02
48718;BME280;34521;33.042;-96.586;2023-04-01T09:16:28;99697.83;;;19.18;35.96
48718;BME280;34521;33.042;-96.586;2023-04-01T09:18:59;99696.68;;;20.86;32.41
48718;BME280;34521;33.042;-96.586;2023-04-01T09:23:47;99700.19;;;21.45;31.56
48718;BME280;34521;33.042;-96.586;2023-04-01T09:28:33;99694.79;;;21.99;30.67
48718;BME280;34521;33.042;-96.586;2023-04-01T09:30:58;99697.97;;;21.59;30.82
48718;BME280;34521;33.042;-96.586;2023-04-01T09:35:46;99696.56;;;22.27;30.56
48718;BME280;34521;33.042;-96.586;2023-04-01T09:38:16;99699.03;;;22.12;30.42
48718;BME280;34521;33.042;-96.586;2023-04-01T09:40:41;99701.40;;;21.89;30.64
48718;BME280;34521;33.042;-96.586;2023-04-01T09:43:10;99706.80;;;21.82;30.49
48718;BME280;34521;33.042;-96.586;2023-04-01T09:45:32;99712.65;;;22.04;30.47
48718;BME280;34521;33.042;-96.586;2023-04-01T09:47:56;99712.86;;;21.52;30.81
48718;BME280;34521;33.042;-96.586;2023-04-01T09:50:18;99713.34;;;21.55;30.76
48718;BME280;34521;33.042;-96.586;2023-04-01T09:52:40;99721.02;;;21.96;30.21
48718;BME280;34521;33.042;-96.586;2023-04-01T09:57:38;99737.35;;;22.10;30.35
48718;BME280;34521;33.042;-96.586;2023-04-01T10:00:08;99742.03;;;22.09;30.00
48718;BME280;34521;33.042;-96.586;2023-04-01T10:02:25;99745.91;;;22.12;30.26
48718;BME280;34521;33.042;-96.586;2023-04-01T10:16:54;99814.81;;;20.86;32.84
48718;BME280;34521;33.042;-96.586;2023-04-01T10:21:50;99820.01;;;21.06;31.46
48718;BME280;34521;33.042;-96.586;2023-04-01T10:26:33;99826.21;;;21.54;30.82
48718;BME280;34521;33.042;-96.586;2023-04-01T10:33:58;99843.00;;;21.70;30.30
48718;BME280;34521;33.042;-96.586;2023-04-01T10:45:58;99876.20;;;22.08;29.80
48718;BME280;34521;33.042;-96.586;2023-04-01T10:48:21;99878.56;;;22.02;29.55
48718;BME280;34521;33.042;-96.586;2023-04-01T10:55:36;99893.62;;;21.47;30.06
48718;BME280;34521;33.042;-96.586;2023-04-01T11:02:57;99906.73;;;18.07;35.18
48718;BME280;34521;33.042;-96.586;2023-04-01T11:17:26;99924.79;;;20.50;31.69
48718;BME280;34521;33.042;-96.586;2023-04-01T11:19:50;99928.28;;;20.88;30.92
48718;BME280;34521;33.042;-96.586;2023-04-01T11:22:09;99935.34;;;21.41;30.28
48718;BME280;34521;33.042;-96.586;2023-04-01T11:24:43;99948.99;;;21.53;30.13
48718;BME280;34521;33.042;-96.586;2023-04-01T11:26:57;99955.16;;;21.49;30.15
48718;BME280;34521;33.042;-96.586;2023-04-01T11:29:30;99959.97;;;21.41;30.03
48718;BME280;34521;33.042;-96.586;2023-04-01T11:31:50;99962.71;;;21.69;29.71
48718;BME280;34521;33.042;-96.586;2023-04-01T11:34:19;99972.87;;;21.53;29.64
48718;BME280;34521;33.042;-96.586;2023-04-01T11:36:39;99983.51;;;21.75;29.64
48718;BME280;34521;33.042;-96.586;2023-04-01T11:39:08;99993.27;;;21.72;29.64
48718;BME280;34521;33.042;-96.586;2023-04-01T11:41:31;99997.99;;;21.67;29.68
48718;BME280;34521;33.042;-96.586;2023-04-01T11:43:53;100001.56;;;21.71;29.86
48718;BME280;34521;33.042;-96.586;2023-04-01T11:46:15;100005.59;;;21.00;30.08
48718;BME280;34521;33.042;-96.586;2023-04-01T11:48:52;100012.51;;;21.47;29.85
48718;BME280;34521;33.042;-96.586;2023-04-01T11:51:16;100014.14;;;21.81;29.49
48718;BME280;34521;33.042;-96.586;2023-04-01T11:53:34;100018.05;;;21.60;29.69
48718;BME280;34521;33.042;-96.586;2023-04-01T11:56:00;100023.34;;;21.63;29.87
48718;BME280;34521;33.042;-96.586;2023-04-01T12:00:55;100034.30;;;21.31;29.95
48718;BME280;34521;33.042;-96.586;2023-04-01T12:03:22;100041.23;;;20.37;31.23
48718;BME280;34521;33.042;-96.586;2023-04-01T12:05:41;100056.84;;;17.57;35.23
48718;BME280;34521;33.042;-96.586;2023-04-01T12:08:06;100068.26;;;17.55;36.25
48718;BME280;34521;33.042;-96.586;2023-04-01T12:10:26;100079.85;;;17.57;36.49
48718;BME280;34521;33.042;-96.586;2023-04-01T12:12:54;100085.10;;;17.62;36.23
48718;BME280;34521;33.042;-96.586;2023-04-01T12:15:19;100081.14;;;20.43;32.21
48718;BME280;34521;33.042;-96.586;2023-04-01T12:17:43;100088.89;;;20.78;31.20
48718;BME280;34521;33.042;-96.586;2023-04-01T12:22:37;100102.37;;;20.82;30.53
48718;BME280;34521;33.042;-96.586;2023-04-01T12:24:59;100108.44;;;21.34;29.91
48718;BME280;34521;33.042;-96.586;2023-04-01T12:27:37;100112.60;;;21.65;29.57
48718;BME280;34521;33.042;-96.586;2023-04-01T12:29:57;100115.50;;;21.22;30.01
48718;BME280;34521;33.042;-96.586;2023-04-01T12:32:16;100121.12;;;21.24;30.02
48718;BME280;34521;33.042;-96.586;2023-04-01T12:34:45;100127.12;;;21.40;29.77
48718;BME280;34521;33.042;-96.586;2023-04-01T12:37:06;100134.31;;;21.78;29.41
48718;BME280;34521;33.042;-96.586;2023-04-01T12:39:33;100146.19;;;21.38;29.51
48718;BME280;34521;33.042;-96.586;2023-04-01T12:41:58;100154.90;;;21.65;29.50
48718;BME280;34521;33.042;-96.586;2023-04-01T12:49:17;100180.98;;;21.13;29.79
48718;BME280;34521;33.042;-96.586;2023-04-01T12:51:37;100184.21;;;21.67;29.47
48718;BME280;34521;33.042;-96.586;2023-04-01T12:56:24;100194.24;;;21.40;29.72
48718;BME280;34521;33.042;-96.586;2023-04-01T12:59:03;100195.50;;;21.30;29.58
48718;BME280;34521;33.042;-96.586;2023-04-01T13:01:22;100208.73;;;18.22;33.91
48718;BME280;34521;33.042;-96.586;2023-04-01T13:03:48;100211.99;;;17.28;35.80
48718;BME280;34521;33.042;-96.586;2023-04-01T13:08:34;100228.14;;;17.18;36.35
48718;BME280;34521;33.042;-96.586;2023-04-01T13:13:23;100238.67;;;19.80;32.62
48718;BME280;34521;33.042;-96.586;2023-04-01T13:15:41;100239.71;;;20.37;31.23
48718;BME280;34521;33.042;-96.586;2023-04-01T13:18:16;100243.61;;;20.55;30.95
48718;BME280;34521;33.042;-96.586;2023-04-01T13:20:39;100248.30;;;21.45;29.96
48718;BME280;34521;33.042;-96.586;2023-04-01T13:23:05;100259.34;;;21.06;29.81
48718;BME280;34521;33.042;-96.586;2023-04-01T13:25:25;100263.37;;;21.30;29.54
48718;BME280;34521;33.042;-96.586;2023-04-01T13:27:45;100265.01;;;21.31;29.50
48718;BME280;34521;33.042;-96.586;2023-04-01T13:30:21;100269.62;;;21.22;29.54
48718;BME280;34521;33.042;-96.586;2023-04-01T13:32:40;100272.75;;;21.38;29.14
48718;BME280;34521;33.042;-96.586;2023-04-01T13:35:10;100274.75;;;21.49;29.26
48718;BME280;34521;33.042;-96.586;2023-04-01T13:37:32;100278.70;;;21.48;29.23
48718;BME280;34521;33.042;-96.586;2023-04-01T13:39:58;100280.31;;;21.52;29.14
48718;BME280;34521;33.042;-96.586;2023-04-01T13:42:20;100285.08;;;21.40;29.02
48718;BME280;34521;33.042;-96.586;2023-04-01T13:44:42;100285.99;;;21.59;29.09
48718;BME280;34521;33.042;-96.586;2023-04-01T13:49:38;100297.78;;;21.43;29.48
48718;BME280;34521;33.042;-96.586;2023-04-01T13:54:33;100302.82;;;21.42;29.47
48718;BME280;34521;33.042;-96.586;2023-04-01T13:56:51;100305.94;;;21.30;29.03
48718;BME280;34521;33.042;-96.586;2023-04-01T14:01:40;100318.38;;;17.38;35.45
48718;BME280;34521;33.042;-96.586;2023-04-01T14:06:34;100323.81;;;17.44;35.78
48718;BME280;34521;33.042;-96.586;2023-04-01T14:09:03;100323.50;;;17.72;35.66